Time;durP1;ratioP1;P1;durP2;ratioP2;P2;SDS_P1;SDS_P2;PMS_P1;PMS_P2;Temp;Humidity;BMP_temperature;BMP_pressure;BME280_temperature;BME280_humidity;BME280_pressure;Samples;Min_cycle;Max_cycle;Signal;HPM_P1;HPM_P2
2022/05/16 00:02:23;;;;;;;7.47;3.97;;;13.30;99.90;;;;;;5008672;28;20033;-65
2022/05/16 00:04:50;;;;;;;7.53;4.25;;;13.30;99.90;;;;;;5012279;28;20042;-65
2022/05/16 00:07:16;;;;;;;6.03;3.72;;;13.30;99.90;;;;;;5003362;28;20413;-65
2022/05/16 00:09:42;;;;;;;7.28;4.18;;;13.30;99.90;;;;;;5001913;28;20181;-65
2022/05/16 00:12:09;;;;;;;9.20;5.38;;;13.30;99.90;;;;;;5002707;28;21011;-65
2022/05/16 00:14:36;;;;;;;6.45;4.57;;;13.20;99.90;;;;;;5003113;28;20052;-65
2022/05/16 00:17:02;;;;;;;5.53;4.47;;;13.20;99.90;;;;;;5011263;28;20792;-65
2022/05/16 00:19:27;;;;;;;4.80;3.40;;;13.20;99.90;;;;;;5011669;28;20119;-65
2022/05/16 00:21:53;;;;;;;5.07;3.90;;;13.10;99.90;;;;;;5005799;28;20801;-65
2022/05/16 00:24:24;;;;;;;8.13;4.88;;;13.10;99.90;;;;;;5003495;28;20045;-65
2022/05/16 00:26:49;;;;;;;5.07;3.72;;;13.20;99.90;;;;;;5015767;28;20727;-65
2022/05/16 00:29:15;;;;;;;6.15;3.88;;;13.20;99.90;;;;;;5008540;28;20049;-65
2022/05/16 00:31:40;;;;;;;7.68;6.00;;;13.20;99.90;;;;;;5003398;28;20052;-65
2022/05/16 00:34:06;;;;;;;10.57;4.47;;;13.10;99.90;;;;;;5004978;28;20122;-65
2022/05/16 00:36:31;;;;;;;7.80;3.40;;;13.10;99.90;;;;;;5002170;28;20060;-65
2022/05/16 00:38:57;;;;;;;6.00;3.38;;;13.10;99.90;;;;;;5003361;28;20103;-66
2022/05/16 00:41:22;;;;;;;7.82;3.80;;;13.00;99.90;;;;;;5004693;28;20784;-65
2022/05/16 00:43:55;;;;;;;6.45;3.92;;;13.10;99.90;;;;;;5004543;28;20049;-65
2022/05/16 00:46:23;;;;;;;11.60;4.22;;;13.10;99.90;;;;;;5007544;28;20053;-65
2022/05/16 00:48:49;;;;;;;6.25;3.80;;;13.10;99.90;;;;;;5004396;28;20287;-65
2022/05/16 00:51:41;;;;;;;8.35;4.07;;;13.10;99.90;;;;;;5006066;28;20056;-65
2022/05/16 00:54:15;;;;;;;5.10;3.80;;;13.10;99.90;;;;;;5003813;28;20115;-65
2022/05/16 00:56:42;;;;;;;9.15;5.25;;;13.00;99.90;;;;;;5012320;28;20080;-65
2022/05/16 00:59:07;;;;;;;5.22;3.97;;;13.00;99.90;;;;;;5005410;28;20060;-66
2022/05/16 01:07:03;;;;;;;6.90;3.67;;;12.90;99.90;;;;;;5000822;28;20049;-65
2022/05/16 01:09:30;;;;;;;4.97;4.00;;;12.90;99.90;;;;;;5001051;28;20061;-65
2022/05/16 01:11:57;;;;;;;6.20;3.75;;;12.90;99.90;;;;;;5000925;28;20702;-66
2022/05/16 01:14:44;;;;;;;7.35;4.47;;;12.80;99.90;;;;;;5001027;28;20037;-65
2022/05/16 01:17:11;;;;;;;4.75;4.05;;;12.80;99.90;;;;;;5000592;28;20152;-65
2022/05/16 01:19:37;;;;;;;5.55;3.53;;;12.70;99.90;;;;;;5010603;28;20054;-65
2022/05/16 01:22:22;;;;;;;8.05;3.30;;;12.70;99.90;;;;;;5006472;28;20080;-65
2022/05/16 01:24:47;;;;;;;5.38;3.63;;;12.70;99.90;;;;;;5001631;28;20049;-65
2022/05/16 01:27:13;;;;;;;7.05;3.35;;;12.70;99.90;;;;;;5000745;28;20261;-65
2022/05/16 01:29:38;;;;;;;6.07;4.03;;;12.70;99.90;;;;;;5001312;28;20042;-65
2022/05/16 01:32:04;;;;;;;7.78;3.55;;;12.70;99.90;;;;;;5001214;28;20042;-65
2022/05/16 01:34:30;;;;;;;5.22;3.15;;;12.70;99.90;;;;;;4998142;28;20053;-65
2022/05/16 01:36:56;;;;;;;4.25;3.25;;;12.70;99.90;;;;;;5006697;28;20373;-65
2022/05/16 01:39:22;;;;;;;5.47;3.45;;;12.70;99.90;;;;;;5010030;28;20052;-65
2022/05/16 01:41:47;;;;;;;4.97;3.08;;;12.70;99.90;;;;;;5004214;28;20061;-65
2022/05/16 01:44:13;;;;;;;6.47;3.53;;;12.70;99.90;;;;;;5001186;28;20041;-65
2022/05/16 01:46:40;;;;;;;6.32;3.45;;;12.60;99.90;;;;;;5000744;28;20089;-65
2022/05/16 01:49:08;;;;;;;4.28;3.88;;;12.60;99.90;;;;;;5008953;28;20033;-65
2022/05/16 01:51:34;;;;;;;8.00;3.15;;;12.50;99.90;;;;;;5009308;28;20078;-65
2022/05/16 01:54:03;;;;;;;3.42;3.13;;;12.50;99.90;;;;;;5000964;28;20843;-65
2022/05/16 01:56:30;;;;;;;4.55;3.20;;;12.50;99.90;;;;;;5000207;28;20061;-65
2022/05/16 01:58:55;;;;;;;6.68;3.60;;;12.50;99.90;;;;;;5009677;28;20453;-65
2022/05/16 02:01:21;;;;;;;4.63;3.08;;;12.40;99.90;;;;;;5006708;28;20042;-65
2022/05/16 02:03:48;;;;;;;5.15;3.03;;;12.40;99.90;;;;;;5001501;28;20049;-65
2022/05/16 02:06:14;;;;;;;7.00;3.58;;;12.30;99.90;;;;;;5000373;28;20588;-65
2022/05/16 02:08:40;;;;;;;3.60;3.17;;;12.30;99.90;;;;;;5008919;28;20056;-65
2022/05/16 02:11:07;;;;;;;4.47;3.17;;;12.30;99.90;;;;;;5008873;28;20053;-65
2022/05/16 02:13:34;;;;;;;4.75;2.53;;;12.20;99.90;;;;;;5006359;28;20037;-65
2022/05/16 02:16:00;;;;;;;3.70;2.97;;;12.20;99.90;;;;;;5003339;28;20136;-65
2022/05/16 02:18:26;;;;;;;6.25;2.80;;;11.90;99.90;;;;;;5002823;28;20714;-65
2022/05/16 02:20:52;;;;;;;4.47;3.42;;;12.20;99.90;;;;;;5003082;28;20087;-65
2022/05/16 02:26:02;;;;;;;3.78;2.45;;;12.20;99.90;;;;;;5003443;28;20927;-66
2022/05/16 02:28:27;;;;;;;4.18;2.35;;;12.20;99.90;;;;;;5002006;28;20053;-65
2022/05/16 02:30:54;;;;;;;3.28;2.35;;;12.20;99.90;;;;;;5000797;28;20048;-65
2022/05/16 02:33:21;;;;;;;5.28;2.78;;;12.20;99.90;;;;;;5002407;28;20048;-66
2022/05/16 02:35:47;;;;;;;4.47;2.35;;;12.20;99.90;;;;;;5002632;28;20053;-65
2022/05/16 02:38:13;;;;;;;4.50;2.85;;;12.20;99.90;;;;;;5000202;28;20045;-65
2022/05/16 02:40:40;;;;;;;5.20;2.45;;;12.20;99.90;;;;;;5002070;28;20747;-65
2022/05/16 02:43:06;;;;;;;3.90;2.30;;;12.20;99.90;;;;;;5002192;28;20077;-65
2022/05/16 02:45:33;;;;;;;2.63;2.30;;;12.20;99.90;;;;;;5000854;28;20044;-65
2022/05/16 02:47:58;;;;;;;6.25;2.70;;;12.20;99.90;;;;;;5000124;28;20045;-65
2022/05/16 02:50:25;;;;;;;2.40;2.20;;;12.10;99.90;;;;;;5002320;28;20130;-65
2022/05/16 02:52:52;;;;;;;4.13;2.25;;;12.20;99.90;;;;;;4998493;28;20791;-65
2022/05/16 02:55:18;;;;;;;2.20;2.00;;;12.20;99.90;;;;;;5004114;28;20046;-65
2022/05/16 02:57:44;;;;;;;5.32;3.33;;;12.10;99.90;;;;;;5001482;28;20089;-65
2022/05/16 03:00:12;;;;;;;3.00;2.78;;;12.10;99.90;;;;;;4998869;28;20091;-65
2022/05/16 03:02:39;;;;;;;3.65;2.30;;;12.10;99.90;;;;;;5002980;28;20554;-65
2022/05/16 03:05:06;;;;;;;3.45;2.90;;;12.00;99.90;;;;;;5001723;28;20038;-65
2022/05/16 03:07:33;;;;;;;4.38;2.30;;;11.90;99.90;;;;;;5004473;28;20042;-65
2022/05/16 03:09:59;;;;;;;4.00;2.30;;;11.90;99.90;;;;;;5004874;28;20060;-65
2022/05/16 03:12:24;;;;;;;2.55;2.28;;;11.90;99.90;;;;;;5003309;28;20982;-65
2022/05/16 03:14:50;;;;;;;5.38;2.45;;;11.90;99.90;;;;;;5001926;28;20049;-65
2022/05/16 03:17:16;;;;;;;5.22;2.60;;;11.90;99.90;;;;;;5002103;28;20132;-65
2022/05/16 03:19:42;;;;;;;3.17;2.30;;;11.90;99.90;;;;;;5004596;28;20076;-65
2022/05/16 03:22:08;;;;;;;4.45;3.10;;;11.90;99.90;;;;;;5005425;28;20041;-65
2022/05/16 03:24:33;;;;;;;3.03;2.00;;;11.90;99.90;;;;;;5006472;28;20874;-65
2022/05/16 03:27:00;;;;;;;4.32;2.63;;;11.80;99.90;;;;;;5001213;28;20044;-65
2022/05/16 03:29:26;;;;;;;2.72;2.40;;;11.90;99.90;;;;;;5002347;28;20496;-65
2022/05/16 03:31:53;;;;;;;3.65;2.40;;;11.90;99.90;;;;;;5007573;28;20045;-65
2022/05/16 03:34:19;;;;;;;3.10;2.15;;;11.90;99.90;;;;;;5004450;28;20111;-65
2022/05/16 03:36:45;;;;;;;6.00;2.35;;;11.90;99.90;;;;;;5001368;28;20783;-65
2022/05/16 03:41:56;;;;;;;4.70;2.20;;;11.90;99.90;;;;;;5006296;28;20251;-65
2022/05/16 03:44:23;;;;;;;3.42;2.50;;;11.90;99.90;;;;;;5002856;28;20042;-65
2022/05/16 03:46:49;;;;;;;4.38;2.63;;;11.90;99.90;;;;;;5001937;28;20129;-65
2022/05/16 03:49:14;;;;;;;2.25;2.08;;;11.90;99.90;;;;;;5004322;28;20072;-65
2022/05/16 03:51:40;;;;;;;4.50;2.17;;;11.90;99.90;;;;;;5001466;28;20859;-65
2022/05/16 03:54:06;;;;;;;7.80;2.45;;;11.90;99.90;;;;;;5003160;28;20038;-65
2022/05/16 03:56:32;;;;;;;4.43;2.28;;;11.90;99.90;;;;;;5005891;28;20049;-65
2022/05/16 03:58:58;;;;;;;4.57;2.33;;;11.90;99.90;;;;;;5001521;28;20052;-65
2022/05/16 04:01:25;;;;;;;2.85;2.47;;;11.90;99.90;;;;;;5002336;28;20041;-65
2022/05/16 04:03:51;;;;;;;3.05;2.22;;;12.00;99.90;;;;;;5000115;28;20151;-65
2022/05/16 04:06:17;;;;;;;3.67;2.17;;;12.00;99.90;;;;;;5001698;28;20148;-65
2022/05/16 04:08:43;;;;;;;3.15;2.17;;;12.00;99.90;;;;;;5001232;28;20100;-65
2022/05/16 04:11:10;;;;;;;2.03;1.80;;;12.00;99.90;;;;;;5001926;28;20125;-65
2022/05/16 04:13:36;;;;;;;5.20;2.53;;;12.00;99.90;;;;;;5003273;28;20038;-65
2022/05/16 04:16:03;;;;;;;3.25;2.22;;;12.00;99.90;;;;;;5000826;28;20086;-65
2022/05/16 04:18:28;;;;;;;4.45;2.47;;;12.10;99.90;;;;;;4999421;28;20144;-65
2022/05/16 04:20:54;;;;;;;3.83;2.50;;;12.10;99.90;;;;;;5002021;28;20164;-65
2022/05/16 04:23:19;;;;;;;3.83;2.50;;;12.10;99.90;;;;;;4999577;28;20040;-65
2022/05/16 04:25:45;;;;;;;2.67;2.17;;;12.10;99.90;;;;;;4996523;28;20188;-65
2022/05/16 04:28:12;;;;;;;5.10;2.30;;;12.20;99.90;;;;;;4997489;28;20092;-65
2022/05/16 04:30:39;;;;;;;3.70;2.50;;;12.20;99.90;;;;;;4996352;28;20705;-65
2022/05/16 04:33:05;;;;;;;2.90;2.30;;;12.30;99.90;;;;;;4997053;28;20860;-65
2022/05/16 04:35:31;;;;;;;3.42;2.42;;;12.30;99.90;;;;;;4994943;28;20947;-65
2022/05/16 04:37:56;;;;;;;3.75;2.80;;;12.40;99.90;;;;;;5000718;28;20048;-65
2022/05/16 04:40:22;;;;;;;3.15;2.72;;;12.40;99.90;;;;;;5000918;28;20041;-65
2022/05/16 04:42:48;;;;;;;3.15;2.28;;;12.50;99.90;;;;;;5001575;28;20309;-65
2022/05/16 04:45:19;;;;;;;4.47;2.28;;;12.50;99.90;;;;;;4999674;28;20053;-66
2022/05/16 04:47:47;;;;;;;6.85;2.35;;;12.50;99.90;;;;;;4997418;28;20092;-64
2022/05/16 04:50:16;;;;;;;3.28;2.15;;;12.60;99.90;;;;;;4998524;28;20053;-65
2022/05/16 04:52:42;;;;;;;3.95;2.33;;;12.60;99.90;;;;;;4997854;28;20045;-64
2022/05/16 04:55:08;;;;;;;3.80;2.42;;;12.60;99.90;;;;;;4998522;28;20851;-65
2022/05/16 04:57:34;;;;;;;4.47;2.20;;;12.70;99.90;;;;;;5001345;28;20075;-65
2022/05/16 04:59:59;;;;;;;3.33;2.10;;;12.70;99.90;;;;;;5000418;28;20493;-64
2022/05/16 05:02:25;;;;;;;3.88;2.70;;;12.70;99.90;;;;;;4995071;28;20049;-65
2022/05/16 05:04:51;;;;;;;2.53;2.15;;;12.80;99.90;;;;;;4997445;28;20715;-64
2022/05/16 05:07:17;;;;;;;4.47;2.20;;;12.80;99.90;;;;;;4997159;28;20606;-64
2022/05/16 05:15:13;;;;;;;5.47;2.78;;;13.00;99.90;;;;;;4995496;28;20092;-64
2022/05/16 05:17:40;;;;;;;3.05;2.17;;;13.10;99.90;;;;;;4998932;28;20042;-63
2022/05/16 05:20:12;;;;;;;3.60;2.58;;;13.10;99.90;;;;;;4997692;28;20184;-64
2022/05/16 05:22:40;;;;;;;9.18;2.55;;;13.20;99.90;;;;;;4997012;28;20802;-64
2022/05/16 05:25:05;;;;;;;3.50;2.72;;;13.30;99.90;;;;;;4997647;28;20199;-64
2022/05/16 05:27:32;;;;;;;3.60;2.70;;;13.40;99.90;;;;;;4995295;28;20063;-64
2022/05/16 05:29:57;;;;;;;4.32;2.50;;;13.50;99.90;;;;;;4996031;28;20132;-64
2022/05/16 05:32:23;;;;;;;6.40;2.17;;;13.60;99.90;;;;;;4999039;28;21226;-63
2022/05/16 05:34:49;;;;;;;2.97;2.70;;;13.60;99.90;;;;;;4996090;28;20120;-64
2022/05/16 05:37:15;;;;;;;4.38;2.33;;;13.80;99.90;;;;;;4996170;28;20049;-64
2022/05/16 05:39:40;;;;;;;3.85;2.90;;;13.90;99.90;;;;;;4997114;28;20048;-64
2022/05/16 05:42:06;;;;;;;5.75;3.22;;;14.00;99.90;;;;;;4992883;28;20646;-63
2022/05/16 05:44:32;;;;;;;5.18;3.08;;;14.10;99.90;;;;;;4994120;28;20042;-64
2022/05/16 05:46:59;;;;;;;4.78;2.80;;;14.20;99.90;;;;;;4995122;28;20189;-64
2022/05/16 05:49:25;;;;;;;6.82;2.90;;;14.40;99.90;;;;;;4994462;28;20042;-64
2022/05/16 05:51:51;;;;;;;4.18;2.28;;;14.50;99.90;;;;;;4997513;28;20631;-64
2022/05/16 05:54:16;;;;;;;3.28;2.83;;;14.60;99.90;;;;;;5000324;28;20723;-64
2022/05/16 05:56:42;;;;;;;6.50;3.05;;;14.50;99.90;;;;;;4993817;28;20049;-64
2022/05/16 05:59:07;;;;;;;5.40;3.28;;;14.50;99.90;;;;;;4997204;28;20048;-64
2022/05/16 06:01:33;;;;;;;4.82;3.42;;;14.60;99.90;;;;;;4994796;28;20220;-64
2022/05/16 06:03:59;;;;;;;6.18;2.80;;;14.80;99.90;;;;;;4998654;28;20145;-64
2022/05/16 06:06:25;;;;;;;4.20;2.88;;;15.00;99.90;;;;;;4997457;28;20116;-64
2022/05/16 06:08:50;;;;;;;5.22;3.05;;;15.30;99.90;;;;;;4996851;28;20064;-64
2022/05/16 06:11:16;;;;;;;4.88;2.92;;;15.50;99.90;;;;;;4999218;28;20049;-64
2022/05/16 06:13:42;;;;;;;5.40;2.90;;;15.70;99.90;;;;;;5005222;28;20065;-64
2022/05/16 06:16:08;;;;;;;6.97;2.90;;;15.80;99.90;;;;;;5005766;28;20476;-64
2022/05/16 06:18:34;;;;;;;5.55;3.05;;;15.80;99.90;;;;;;5000506;28;21239;-64
2022/05/16 06:21:00;;;;;;;7.50;3.13;;;15.80;99.90;;;;;;4998767;28;20065;-64
2022/05/16 06:23:26;;;;;;;5.18;2.67;;;15.80;99.90;;;;;;4996729;28;20053;-64
2022/05/16 06:25:52;;;;;;;3.75;2.60;;;15.80;99.90;;;;;;4996751;28;20038;-64
2022/05/16 06:28:21;;;;;;;5.78;3.50;;;15.70;99.90;;;;;;4998354;28;20045;-64
2022/05/16 06:30:48;;;;;;;4.63;2.45;;;15.80;99.90;;;;;;4997999;28;20053;-64
2022/05/16 06:33:15;;;;;;;7.20;3.75;;;16.10;99.90;;;;;;4997833;28;20041;-64
2022/05/16 06:35:41;;;;;;;2.50;2.30;;;16.50;99.90;;;;;;5003974;28;20140;-64
2022/05/16 06:38:09;;;;;;;6.70;3.10;;;17.20;99.50;;;;;;5004294;28;20052;-64
2022/05/16 06:40:36;;;;;;;6.38;3.10;;;18.30;98.30;;;;;;5009557;28;20067;-66
2022/05/16 06:43:02;;;;;;;7.22;3.22;;;19.40;96.60;;;;;;5016198;28;20072;-66
2022/05/16 06:45:28;;;;;;;4.97;2.42;;;20.30;95.10;;;;;;4662553;28;10000247;-65
2022/05/16 06:47:54;;;;;;;3.08;2.78;;;21.10;94.90;;;;;;4654248;28;9999780;-65
2022/05/16 06:50:19;;;;;;;5.35;2.88;;;21.70;93.40;;;;;;5003472;28;20092;-65
2022/05/16 06:52:45;;;;;;;3.70;2.63;;;22.40;92.80;;;;;;4997171;28;20116;-66
2022/05/16 06:55:11;;;;;;;5.35;2.38;;;22.80;91.90;;;;;;4999269;28;20148;-66
2022/05/16 06:57:37;;;;;;;4.63;2.72;;;23.10;90.80;;;;;;4999934;28;20653;-65
2022/05/16 07:00:06;;;;;;;5.65;3.13;;;23.40;90.30;;;;;;4999907;28;20557;-65
2022/05/16 07:02:32;;;;;;;7.63;3.53;;;23.60;88.80;;;;;;5001937;28;20072;-65
2022/05/16 07:04:58;;;;;;;3.30;2.22;;;23.90;87.30;;;;;;5004196;28;20052;-66
2022/05/16 07:07:24;;;;;;;7.82;3.00;;;24.20;85.60;;;;;;5012845;28;20052;-65
2022/05/16 07:09:50;;;;;;;3.78;2.40;;;24.40;84.00;;;;;;5003986;28;20053;-66
2022/05/16 07:12:16;;;;;;;9.48;3.97;;;24.50;83.00;;;;;;5003856;28;20115;-72
2022/05/16 07:14:41;;;;;;;11.27;4.78;;;24.60;81.50;;;;;;5004751;28;20156;-72
2022/05/16 07:17:09;;;;;;;8.77;3.78;;;24.80;81.50;;;;;;5001596;28;20048;-71
2022/05/16 07:19:35;;;;;;;8.07;3.60;;;24.90;81.10;;;;;;5005063;28;20053;-72
2022/05/16 07:22:12;;;;;;;6.90;3.72;;;25.10;80.50;;;;;;5004827;28;20058;-72
2022/05/16 07:24:41;;;;;;;8.45;3.50;;;25.20;77.60;;;;;;5003223;28;20099;-72
2022/05/16 07:29:52;;;;;;;4.90;2.78;;;25.20;77.20;;;;;;5003216;28;20092;-72
2022/05/16 07:32:18;;;;;;;4.38;2.55;;;25.10;76.70;;;;;;5004483;28;20037;-72
2022/05/16 07:34:44;;;;;;;8.00;2.85;;;25.30;76.70;;;;;;5002232;28;20810;-72
2022/05/16 07:37:10;;;;;;;5.68;2.85;;;25.50;76.00;;;;;;5004150;28;20049;-73
2022/05/16 07:39:37;;;;;;;8.73;3.28;;;25.60;75.60;;;;;;5002732;28;20055;-73
2022/05/16 07:42:07;;;;;;;4.00;2.78;;;25.50;74.30;;;;;;5001335;28;20055;-65
2022/05/16 07:44:36;;;;;;;7.88;3.33;;;25.30;74.40;;;;;;5001740;28;20527;-66
2022/05/16 07:47:03;;;;;;;6.20;3.08;;;25.60;74.80;;;;;;4999123;28;20045;-66
2022/05/16 07:49:29;;;;;;;4.47;3.40;;;26.00;74.50;;;;;;5001465;28;20044;-66
2022/05/16 07:51:54;;;;;;;7.25;3.08;;;26.50;74.00;;;;;;5000329;28;20053;-66
2022/05/16 07:54:20;;;;;;;3.28;2.83;;;26.60;73.20;;;;;;5001644;28;20038;-66
2022/05/16 07:56:46;;;;;;;7.32;3.28;;;26.40;71.30;;;;;;4996735;28;20077;-65
2022/05/16 07:59:11;;;;;;;7.97;3.55;;;26.20;71.70;;;;;;4997039;28;20572;-66
2022/05/16 08:01:44;;;;;;;6.52;2.90;;;26.30;71.90;;;;;;4885563;28;10001346;-65
2022/05/16 08:04:09;;;;;;;5.85;2.83;;;26.50;72.30;;;;;;5010190;28;20262;-64
2022/05/16 08:06:35;;;;;;;4.35;3.40;;;26.50;72.00;;;;;;5011949;28;20559;-66
2022/05/16 08:11:46;;;;;;;7.88;3.50;;;27.00;71.00;;;;;;5005954;28;20093;-66
2022/05/16 08:14:12;;;;;;;6.95;2.95;;;27.30;69.90;;;;;;5013183;28;20067;-66
2022/05/16 08:16:39;;;;;;;7.53;3.40;;;27.40;69.60;;;;;;5008261;28;20643;-64
2022/05/16 08:19:04;;;;;;;5.88;3.10;;;27.80;69.90;;;;;;5007324;28;20053;-66
2022/05/16 08:21:30;;;;;;;5.97;3.45;;;27.90;69.30;;;;;;5008861;28;20044;-66
2022/05/16 08:23:56;;;;;;;4.85;2.85;;;27.80;68.00;;;;;;5005273;28;20044;-66
2022/05/16 08:26:21;;;;;;;4.10;2.60;;;27.90;67.30;;;;;;5009831;28;20284;-66
2022/05/16 08:28:47;;;;;;;5.63;2.80;;;27.80;67.10;;;;;;5006283;28;20056;-66
2022/05/16 08:31:13;;;;;;;8.48;3.03;;;27.80;66.90;;;;;;5003068;28;20720;-66
2022/05/16 08:33:40;;;;;;;10.75;3.60;;;27.60;66.30;;;;;;5004881;28;20776;-66
2022/05/16 08:41:51;;;;;;;5.55;2.80;;;28.60;65.90;;;;;;5002595;28;20053;-66
2022/05/16 08:44:22;;;;;;;6.55;3.30;;;28.60;65.20;;;;;;5002887;28;20056;-66
2022/05/16 08:47:13;;;;;;;6.65;2.80;;;28.80;65.20;;;;;;5014276;28;20044;-66
2022/05/16 08:49:41;;;;;;;5.53;2.20;;;29.20;64.80;;;;;;5003491;28;20758;-66
2022/05/16 08:52:31;;;;;;;4.05;2.45;;;29.30;64.80;;;;;;5003175;28;20073;-66
2022/05/16 08:55:10;;;;;;;5.43;2.95;;;29.60;63.00;;;;;;5006194;28;20762;-66
2022/05/16 08:57:44;;;;;;;10.73;3.20;;;29.20;62.90;;;;;;5015188;28;20216;-66
2022/05/16 09:00:41;;;;;;;3.90;2.17;;;29.50;63.40;;;;;;5009294;28;20100;-66
2022/05/16 09:03:12;;;;;;;5.47;2.75;;;29.70;63.20;;;;;;5001176;28;20057;-66
2022/05/16 09:05:49;;;;;;;6.70;3.25;;;30.00;63.30;;;;;;5002614;28;20057;-67
2022/05/16 09:08:39;;;;;;;5.60;3.30;;;30.30;62.20;;;;;;5004403;28;20049;-66
2022/05/16 09:11:14;;;;;;;6.18;3.17;;;30.10;62.30;;;;;;5006215;28;20049;-66
2022/05/16 09:13:56;;;;;;;6.60;3.47;;;29.80;62.10;;;;;;5010810;28;20053;-65
2022/05/16 09:16:33;;;;;;;5.85;2.72;;;29.80;62.30;;;;;;5012569;28;20049;-65
2022/05/16 09:19:17;;;;;;;5.97;2.97;;;29.40;61.20;;;;;;5004231;28;20526;-65
2022/05/16 09:21:54;;;;;;;6.93;3.20;;;29.30;61.30;;;;;;5002828;28;20096;-66
2022/05/16 09:24:35;;;;;;;6.63;2.67;;;29.40;61.50;;;;;;5004379;28;20053;-66
2022/05/16 09:27:07;;;;;;;4.47;2.50;;;29.70;61.30;;;;;;5005252;28;20393;-66
2022/05/16 09:29:45;;;;;;;5.78;2.65;;;29.70;60.80;;;;;;5005112;28;20045;-65
2022/05/16 09:32:31;;;;;;;5.88;2.67;;;29.80;61.00;;;;;;5006499;28;20527;-66
2022/05/16 09:34:57;;;;;;;5.30;2.83;;;30.10;59.80;;;;;;5004291;28;20393;-66
2022/05/16 09:37:23;;;;;;;6.80;2.50;;;29.90;60.00;;;;;;5003987;28;20045;-66
2022/05/16 09:39:53;;;;;;;4.65;2.65;;;29.60;60.30;;;;;;5003133;28;20046;-66
2022/05/16 09:42:25;;;;;;;6.97;3.20;;;29.40;59.70;;;;;;5004207;28;20053;-65
2022/05/16 09:45:03;;;;;;;6.22;2.67;;;29.20;59.90;;;;;;5005070;28;20458;-65
2022/05/16 09:47:29;;;;;;;5.65;3.20;;;29.10;59.50;;;;;;5009231;28;20183;-65
2022/05/16 09:50:10;;;;;;;5.35;3.08;;;28.90;59.60;;;;;;5009627;28;20499;-65
2022/05/16 09:52:42;;;;;;;5.07;2.33;;;28.80;59.90;;;;;;5002554;28;20049;-65
2022/05/16 09:55:10;;;;;;;;;;;28.50;59.70;;;;;;5003665;28;20045;-66
2022/05/16 09:57:48;;;;;;;7.70;2.95;;;28.00;59.80;;;;;;5002429;28;19968;-65
2022/05/16 10:00:38;;;;;;;5.32;2.63;;;28.00;60.00;;;;;;5003215;28;20068;-65
2022/05/16 10:03:27;;;;;;;5.85;3.00;;;28.10;60.30;;;;;;5003188;28;20659;-65
2022/05/16 10:05:53;;;;;;;7.20;3.50;;;28.10;60.50;;;;;;5003522;28;20057;-65
2022/05/16 10:08:29;;;;;;;5.53;3.40;;;28.10;60.60;;;;;;5007933;28;20138;-66
2022/05/16 10:10:57;;;;;;;6.85;2.70;;;28.20;60.40;;;;;;5010201;28;20053;-66
2022/05/16 10:13:23;;;;;;;7.93;2.83;;;28.70;60.90;;;;;;5003588;28;20136;-65
2022/05/16 10:15:52;;;;;;;3.78;2.25;;;29.30;61.20;;;;;;5002404;28;20055;-65
2022/05/16 10:18:22;;;;;;;4.40;2.20;;;29.70;60.20;;;;;;5003285;28;20144;-65
2022/05/16 10:20:55;;;;;;;5.63;2.50;;;29.90;59.80;;;;;;5005480;28;20041;-66
2022/05/16 10:23:33;;;;;;;6.60;2.85;;;29.80;59.20;;;;;;5010419;28;20042;-65
2022/05/16 10:26:04;;;;;;;6.30;2.92;;;30.10;58.80;;;;;;5009079;28;20053;-65
2022/05/16 10:28:38;;;;;;;3.83;2.17;;;30.30;58.80;;;;;;5003582;28;20056;-65
2022/05/16 10:33:59;;;;;;;6.13;3.28;;;30.00;58.60;;;;;;5013649;28;20060;-66
2022/05/16 10:36:27;;;;;;;8.45;2.78;;;29.70;59.00;;;;;;5003053;28;20152;-66
2022/05/16 10:39:07;;;;;;;6.82;3.00;;;29.60;59.20;;;;;;5002837;28;20061;-65
2022/05/16 10:42:14;;;;;;;7.85;2.60;;;29.30;58.50;;;;;;5003580;28;20057;-65
2022/05/16 10:44:59;;;;;;;6.47;2.65;;;29.50;58.10;;;;;;5002461;28;20707;-65
2022/05/16 10:47:34;;;;;;;4.00;2.90;;;29.60;58.50;;;;;;5003196;28;20057;-66
2022/05/16 10:50:18;;;;;;;8.07;2.97;;;29.60;58.40;;;;;;5010908;28;20075;-66
2022/05/16 10:53:10;;;;;;;6.85;2.70;;;29.60;58.10;;;;;;5008903;28;20122;-66
2022/05/16 10:55:50;;;;;;;3.20;2.72;;;29.50;58.50;;;;;;5005766;28;20049;-65
2022/05/16 10:58:21;;;;;;;6.28;3.20;;;29.30;57.90;;;;;;5003654;28;20045;-66
2022/05/16 11:01:11;;;;;;;3.88;2.50;;;29.00;58.40;;;;;;5012777;28;20893;-65
2022/05/16 11:03:45;;;;;;;4.38;3.40;;;28.80;58.40;;;;;;5009283;28;20076;-65
2022/05/16 11:06:20;;;;;;;6.75;3.10;;;28.60;58.60;;;;;;5002687;28;20056;-65
2022/05/16 11:09:02;;;;;;;6.97;2.47;;;28.60;58.60;;;;;;5002702;28;20096;-65
2022/05/16 11:11:36;;;;;;;3.60;2.83;;;28.90;59.00;;;;;;5006376;28;20045;-65
2022/05/16 11:14:30;;;;;;;7.75;3.05;;;29.00;58.70;;;;;;5015103;28;20048;-65
2022/05/16 11:17:08;;;;;;;5.88;3.30;;;28.90;58.70;;;;;;5001353;28;20049;-65
2022/05/16 11:19:44;;;;;;;5.50;2.70;;;28.70;58.40;;;;;;5002104;28;20045;-65
2022/05/16 11:22:36;;;;;;;5.93;2.97;;;28.50;58.50;;;;;;5006201;28;20854;-65
2022/05/16 11:25:16;;;;;;;4.30;3.00;;;28.10;58.30;;;;;;5012195;28;20057;-65
2022/05/16 11:28:06;;;;;;;6.43;3.00;;;27.80;58.30;;;;;;5017680;28;20045;-65
2022/05/16 11:30:50;;;;;;;4.10;2.90;;;27.50;58.50;;;;;;5006617;28;20052;-65
2022/05/16 11:33:23;;;;;;;7.05;3.10;;;27.30;58.40;;;;;;5004849;28;20582;-65
2022/05/16 11:35:51;;;;;;;7.97;3.25;;;27.10;59.40;;;;;;5006667;28;20045;-65
2022/05/16 11:38:33;;;;;;;5.78;2.80;;;27.00;60.40;;;;;;5006178;28;20045;-65
2022/05/16 11:41:14;;;;;;;9.63;3.33;;;26.90;60.90;;;;;;5013784;28;20658;-65
2022/05/16 11:43:49;;;;;;;5.03;2.78;;;26.80;60.80;;;;;;5015627;28;20614;-65
2022/05/16 11:46:23;;;;;;;5.57;2.55;;;26.80;61.90;;;;;;5006338;28;20133;-66
2022/05/16 11:48:55;;;;;;;6.18;2.97;;;26.50;63.70;;;;;;5004925;28;20208;-65
2022/05/16 11:51:43;;;;;;;4.47;3.05;;;26.40;64.90;;;;;;5006400;28;20077;-65
2022/05/16 11:54:12;;;;;;;6.47;3.22;;;26.20;66.80;;;;;;5005675;28;20663;-65
2022/05/16 12:03:03;;;;;;;5.55;3.30;;;25.90;65.80;;;;;;5005958;28;20046;-65
2022/05/16 12:05:30;;;;;;;5.88;3.15;;;25.80;69.30;;;;;;4993188;28;20053;-65
2022/05/16 12:08:15;;;;;;;6.95;3.40;;;25.80;68.20;;;;;;5003404;28;20065;-65
2022/05/16 12:10:57;;;;;;;4.13;3.45;;;25.50;73.10;;;;;;5003438;28;20104;-66
2022/05/16 12:13:29;;;;;;;9.30;3.58;;;25.30;76.90;;;;;;5005106;28;20584;-65
2022/05/16 12:16:13;;;;;;;5.63;3.33;;;25.20;75.80;;;;;;5004992;28;20576;-66
2022/05/16 12:18:43;;;;;;;6.68;3.75;;;25.10;79.50;;;;;;5005468;28;20064;-66
2022/05/16 12:21:13;;;;;;;4.72;3.25;;;24.90;76.50;;;;;;5005303;28;20060;-66
2022/05/16 12:23:44;;;;;;;6.78;3.60;;;24.90;77.30;;;;;;5004646;28;20517;-66
2022/05/16 12:26:11;;;;;;;7.03;3.70;;;24.90;79.00;;;;;;5003918;28;21157;-66
2022/05/16 12:28:37;;;;;;;5.53;3.55;;;24.80;77.90;;;;;;5004289;28;20420;-66
2022/05/16 12:31:06;;;;;;;7.55;3.22;;;24.70;78.20;;;;;;5004554;28;20063;-66
2022/05/16 12:33:40;;;;;;;5.65;3.65;;;24.70;78.50;;;;;;5003568;28;20045;-67
2022/05/16 12:36:13;;;;;;;9.68;3.47;;;24.80;79.30;;;;;;5004406;28;20052;-66
2022/05/16 12:38:38;;;;;;;16.92;5.25;;;24.80;80.80;;;;;;5004405;28;20120;-66
2022/05/16 12:41:44;;;;;;;8.93;4.10;;;24.80;79.20;;;;;;5004638;28;20462;-66
2022/05/16 12:44:34;;;;;;;9.05;4.45;;;24.90;80.60;;;;;;5008119;28;20256;-66
2022/05/16 12:47:32;;;;;;;6.05;4.07;;;24.90;78.30;;;;;;5006527;28;20049;-66
2022/05/16 12:50:24;;;;;;;8.77;3.72;;;24.90;80.60;;;;;;5003953;28;20050;-66
2022/05/16 12:53:08;;;;;;;5.88;3.83;;;24.90;79.40;;;;;;5004377;28;20096;-66
2022/05/16 12:55:51;;;;;;;9.27;4.82;;;24.80;78.70;;;;;;5004024;28;20038;-67
2022/05/16 12:58:43;;;;;;;8.93;4.43;;;25.00;79.50;;;;;;5001571;28;20073;-66
2022/05/16 13:01:23;;;;;;;10.40;4.03;;;25.10;77.90;;;;;;5004489;28;20128;-66
2022/05/16 13:04:10;;;;;;;11.93;4.05;;;25.30;78.00;;;;;;5004142;28;20244;-66
2022/05/16 13:06:51;;;;;;;7.38;4.30;;;25.30;75.10;;;;;;5004783;28;20076;-66
2022/05/16 13:09:54;;;;;;;9.07;4.18;;;25.50;75.70;;;;;;5002623;28;20382;-66
2022/05/16 13:12:28;;;;;;;8.60;4.32;;;25.70;76.80;;;;;;5004104;28;20116;-66
2022/05/16 13:15:04;;;;;;;7.25;4.35;;;25.90;75.40;;;;;;5003953;28;20055;-66
2022/05/16 13:17:44;;;;;;;6.43;4.18;;;26.00;76.00;;;;;;5004382;28;20049;-66
2022/05/16 13:20:16;;;;;;;9.48;4.15;;;26.00;74.20;;;;;;5003835;28;20924;-66
2022/05/16 13:22:43;;;;;;;9.45;4.75;;;26.10;74.90;;;;;;5003539;28;20049;-66
2022/05/16 13:25:11;;;;;;;12.68;5.10;;;26.10;74.80;;;;;;5003242;28;20147;-66
2022/05/16 13:30:23;;;;;;;7.25;4.45;;;26.20;75.20;;;;;;5003801;28;20131;-66
2022/05/16 13:32:49;;;;;;;9.73;4.40;;;26.10;75.30;;;;;;5002927;28;20045;-66
2022/05/16 13:35:28;;;;;;;7.47;4.03;;;26.10;75.30;;;;;;5003575;28;20156;-66
2022/05/16 13:37:54;;;;;;;8.55;4.15;;;26.00;75.80;;;;;;5003070;28;20056;-66
2022/05/16 13:40:23;;;;;;;7.80;4.00;;;25.90;75.70;;;;;;5002809;28;20901;-66
2022/05/16 13:42:49;;;;;;;11.48;5.78;;;25.80;76.10;;;;;;5001861;28;20224;-66